sensor_id;sensor_type;location;lat;lon;timestamp;pressure;altitude;pressure_sealevel;temperature;humidity
44974;BME280;60981;50.720;11.342;2023-01-01T00:00:36;99427.31;;;16.56;59.97
44974;BME280;60981;50.720;11.342;2023-01-01T00:01:40;99416.03;;;16.57;59.68
44974;BME280;60981;50.720;11.342;2023-01-01T00:02:44;99422.88;;;16.61;59.70
44974;BME280;60981;50.720;11.342;2023-01-01T00:03:54;99418.69;;;16.54;60.11
44974;BME280;60981;50.720;11.342;2023-01-01T00:05:00;99419.56;;;16.55;59.95
44974;BME280;60981;50.720;11.342;2023-01-01T00:06:10;99419.41;;;16.61;60.14
44974;BME280;60981;50.720;11.342;2023-01-01T00:07:13;99404.72;;;16.58;60.20
44974;BME280;60981;50.720;11.342;2023-01-01T00:08:15;99430.94;;;16.49;60.77
44974;BME280;60981;50.720;11.342;2023-01-01T00:09:17;99421.56;;;16.43;60.88
44974;BME280;60981;50.720;11.342;2023-01-01T00:10:38;99425.75;;;16.49;60.87
44974;BME280;60981;50.720;11.342;2023-01-01T00:11:41;99435.34;;;16.47;60.74
44974;BME280;60981;50.720;11.342;2023-01-01T00:12:46;99433.41;;;16.55;60.53
44974;BME280;60981;50.720;11.342;2023-01-01T00:13:52;99436.97;;;16.51;60.84
44974;BME280;60981;50.720;11.342;2023-01-01T00:14:54;99430.94;;;16.49;60.54
44974;BME280;60981;50.720;11.342;2023-01-01T00:16:08;99429.25;;;16.48;60.41
44974;BME280;60981;50.720;11.342;2023-01-01T00:17:11;99432.75;;;16.47;60.88
44974;BME280;60981;50.720;11.342;2023-01-01T00:18:14;99429.22;;;16.49;60.86
44974;BME280;60981;50.720;11.342;2023-01-01T00:19:16;99425.88;;;16.43;61.06
44974;BME280;60981;50.720;11.342;2023-01-01T00:20:22;99437.91;;;16.48;61.13
44974;BME280;60981;50.720;11.342;2023-01-01T00:21:24;99442.13;;;16.52;61.04
44974;BME280;60981;50.720;11.342;2023-01-01T00:22:27;99439.56;;;16.51;61.05
44974;BME280;60981;50.720;11.342;2023-01-01T00:23:49;99429.00;;;16.57;61.07
44974;BME280;60981;50.720;11.342;2023-01-01T00:24:52;99428.88;;;16.63;60.69
44974;BME280;60981;50.720;11.342;2023-01-01T00:25:54;99444.69;;;16.54;61.07
44974;BME280;60981;50.720;11.342;2023-01-01T00:26:57;99434.38;;;16.51;60.73
44974;BME280;60981;50.720;11.342;2023-01-01T00:28:01;99440.75;;;16.36;61.48
44974;BME280;60981;50.720;11.342;2023-01-01T00:29:04;99440.81;;;16.35;61.65
44974;BME280;60981;50.720;11.342;2023-01-01T00:30:08;99440.72;;;16.38;61.92
44974;BME280;60981;50.720;11.342;2023-01-01T00:31:13;99437.31;;;16.36;61.55
44974;BME280;60981;50.720;11.342;2023-01-01T00:32:18;99445.81;;;16.44;61.28
44974;BME280;60981;50.720;11.342;2023-01-01T00:33:25;99444.91;;;16.45;61.57
44974;BME280;60981;50.720;11.342;2023-01-01T00:34:27;99446.75;;;16.40;62.01
44974;BME280;60981;50.720;11.342;2023-01-01T00:35:32;99448.41;;;16.44;61.67
44974;BME280;60981;50.720;11.342;2023-01-01T00:36:35;99445.00;;;16.40;61.97
44974;BME280;60981;50.720;11.342;2023-01-01T00:37:38;99444.22;;;16.37;61.80
44974;BME280;60981;50.720;11.342;2023-01-01T00:38:48;99445.78;;;16.45;61.45
44974;BME280;60981;50.720;11.342;2023-01-01T00:39:50;99437.16;;;16.43;61.41
44974;BME280;60981;50.720;11.342;2023-01-01T00:40:52;99447.50;;;16.45;62.04
44974;BME280;60981;50.720;11.342;2023-01-01T00:41:54;99441.63;;;16.37;62.04
44974;BME280;60981;50.720;11.342;2023-01-01T00:42:56;99443.47;;;16.32;62.69
44974;BME280;60981;50.720;11.342;2023-01-01T00:44:01;99449.00;;;16.16;63.07
44974;BME280;60981;50.720;11.342;2023-01-01T00:45:06;99444.59;;;16.20;63.13
44974;BME280;60981;50.720;11.342;2023-01-01T00:46:09;99450.56;;;16.24;63.12
44974;BME280;60981;50.720;11.342;2023-01-01T00:47:11;99441.88;;;16.25;63.47
44974;BME280;60981;50.720;11.342;2023-01-01T00:48:14;99454.19;;;16.16;63.50
44974;BME280;60981;50.720;11.342;2023-01-01T00:49:18;99448.22;;;16.13;63.78
44974;BME280;60981;50.720;11.342;2023-01-01T00:50:21;99449.75;;;16.21;63.88
44974;BME280;60981;50.720;11.342;2023-01-01T00:51:26;99457.50;;;16.23;63.67
44974;BME280;60981;50.720;11.342;2023-01-01T00:52:35;99443.75;;;16.19;63.46
44974;BME280;60981;50.720;11.342;2023-01-01T00:53:37;99464.38;;;16.26;62.97
44974;BME280;60981;50.720;11.342;2023-01-01T00:54:39;99462.66;;;16.25;63.37
44974;BME280;60981;50.720;11.342;2023-01-01T00:55:42;99453.56;;;16.05;63.48
44974;BME280;60981;50.720;11.342;2023-01-01T00:56:45;99456.19;;;16.04;63.60
44974;BME280;60981;50.720;11.342;2023-01-01T00:57:50;99462.25;;;16.04;63.19
44974;BME280;60981;50.720;11.342;2023-01-01T00:58:53;99462.25;;;16.04;63.11
44974;BME280;60981;50.720;11.342;2023-01-01T01:00:03;99461.34;;;16.05;63.06
44974;BME280;60981;50.720;11.342;2023-01-01T01:01:05;99463.91;;;16.07;63.10
44974;BME280;60981;50.720;11.342;2023-01-01T01:02:08;99457.09;;;16.03;63.00
44974;BME280;60981;50.720;11.342;2023-01-01T01:03:12;99456.31;;;15.99;63.47
44974;BME280;60981;50.720;11.342;2023-01-01T01:04:30;99463.38;;;15.91;63.61
44974;BME280;60981;50.720;11.342;2023-01-01T01:05:33;99460.09;;;15.83;63.68
44974;BME280;60981;50.720;11.342;2023-01-01T01:06:37;99458.41;;;15.82;63.63
44974;BME280;60981;50.720;11.342;2023-01-01T01:07:40;99465.41;;;15.78;64.18
44974;BME280;60981;50.720;11.342;2023-01-01T01:08:45;99458.47;;;15.79;64.41
44974;BME280;60981;50.720;11.342;2023-01-01T01:09:51;99454.25;;;15.72;64.34
44974;BME280;60981;50.720;11.342;2023-01-01T01:10:54;99452.41;;;15.77;63.65
44974;BME280;60981;50.720;11.342;2023-01-01T01:11:56;99457.59;;;15.78;63.67
44974;BME280;60981;50.720;11.342;2023-01-01T01:13:18;99466.25;;;15.79;63.54
44974;BME280;60981;50.720;11.342;2023-01-01T01:14:20;99455.00;;;15.77;63.73
44974;BME280;60981;50.720;11.342;2023-01-01T01:15:25;99458.31;;;15.85;62.91
44974;BME280;60981;50.720;11.342;2023-01-01T01:16:33;99461.59;;;15.95;62.26
44974;BME280;60981;50.720;11.342;2023-01-01T01:17:35;99464.97;;;15.98;62.42
44974;BME280;60981;50.720;11.342;2023-01-01T01:18:39;99458.78;;;16.04;62.33
44974;BME280;60981;50.720;11.342;2023-01-01T01:19:40;99459.75;;;16.00;62.52
44974;BME280;60981;50.720;11.342;2023-01-01T01:20:51;99465.03;;;15.97;62.13
44974;BME280;60981;50.720;11.342;2023-01-01T01:21:54;99461.50;;;15.99;62.28
44974;BME280;60981;50.720;11.342;2023-01-01T01:22:56;99459.88;;;15.95;62.14
44974;BME280;60981;50.720;11.342;2023-01-01T01:24:01;99469.41;;;15.95;62.05
44974;BME280;60981;50.720;11.342;2023-01-01T01:25:05;99462.59;;;15.87;62.42
44974;BME280;60981;50.720;11.342;2023-01-01T01:26:12;99463.44;;;15.88;62.27
44974;BME280;60981;50.720;11.342;2023-01-01T01:27:18;99456.63;;;15.84;62.28
44974;BME280;60981;50.720;11.342;2023-01-01T01:28:21;99461.88;;;15.81;62.00
44974;BME280;60981;50.720;11.342;2023-01-01T01:29:25;99453.13;;;15.85;62.13
44974;BME280;60981;50.720;11.342;2023-01-01T01:30:30;99460.09;;;15.83;61.84
44974;BME280;60981;50.720;11.342;2023-01-01T01:31:33;99455.81;;;15.82;62.05
44974;BME280;60981;50.720;11.342;2023-01-01T01:32:36;99449.72;;;15.83;62.11
44974;BME280;60981;50.720;11.342;2023-01-01T01:33:38;99464.53;;;15.76;62.34
44974;BME280;60981;50.720;11.342;2023-01-01T01:34:41;99464.78;;;15.66;62.11
44974;BME280;60981;50.720;11.342;2023-01-01T01:35:49;99460.34;;;15.71;62.34
44974;BME280;60981;50.720;11.342;2023-01-01T01:36:52;99453.47;;;15.68;62.18
44974;BME280;60981;50.720;11.342;2023-01-01T01:37:55;99456.09;;;15.67;62.31
44974;BME280;60981;50.720;11.342;2023-01-01T01:38:57;99459.59;;;15.66;62.76
44974;BME280;60981;50.720;11.342;2023-01-01T01:40:02;99451.63;;;15.73;62.33
44974;BME280;60981;50.720;11.342;2023-01-01T01:41:04;99456.06;;;15.68;62.38
44974;BME280;60981;50.720;11.342;2023-01-01T01:42:14;99459.53;;;15.69;62.38
44974;BME280;60981;50.720;11.342;2023-01-01T01:46:25;99450.13;;;15.61;62.86
44974;BME280;60981;50.720;11.342;2023-01-01T01:47:48;99462.25;;;15.61;62.84
44974;BME280;60981;50.720;11.342;2023-01-01T01:48:52;99461.50;;;15.54;62.63
44974;BME280;60981;50.720;11.342;2023-01-01T01:50:05;99466.75;;;15.51;63.00
44974;BME280;60981;50.720;11.342;2023-01-01T01:51:12;99464.16;;;15.51;62.99
44974;BME280;60981;50.720;11.342;2023-01-01T01:52:16;99469.41;;;15.48;63.26
44974;BME280;60981;50.720;11.342;2023-01-01T01:53:28;99471.16;;;15.45;63.36
44974;BME280;60981;50.720;11.342;2023-01-01T01:54:34;99469.50;;;15.42;63.31
44974;BME280;60981;50.720;11.342;2023-01-01T01:55:38;99462.69;;;15.37;63.43
44974;BME280;60981;50.720;11.342;2023-01-01T01:57:03;99466.06;;;15.40;63.68
44974;BME280;60981;50.720;11.342;2023-01-01T01:58:10;99470.47;;;15.37;63.70
44974;BME280;60981;50.720;11.342;2023-01-01T01:59:18;99459.19;;;15.39;63.37
44974;BME280;60981;50.720;11.342;2023-01-01T02:00:21;99465.19;;;15.41;63.59
44974;BME280;60981;50.720;11.342;2023-01-01T02:01:24;99464.22;;;15.48;63.25
44974;BME280;60981;50.720;11.342;2023-01-01T02:03:59;99465.06;;;15.49;62.82
44974;BME280;60981;50.720;11.342;2023-01-01T02:05:05;99462.44;;;15.50;63.13
44974;BME280;60981;50.720;11.342;2023-01-01T02:06:10;99463.19;;;15.55;62.92
44974;BME280;60981;50.720;11.342;2023-01-01T02:07:13;99465.06;;;15.49;62.83
44974;BME280;60981;50.720;11.342;2023-01-01T02:08:18;99470.19;;;15.52;63.21
44974;BME280;60981;50.720;11.342;2023-01-01T02:09:23;99471.84;;;15.56;63.33
44974;BME280;60981;50.720;11.342;2023-01-01T02:10:27;99466.75;;;15.51;63.20
44974;BME280;60981;50.720;11.342;2023-01-01T02:11:31;99463.22;;;15.54;63.16
44974;BME280;60981;50.720;11.342;2023-01-01T02:12:35;99471.13;;;15.48;63.56
44974;BME280;60981;50.720;11.342;2023-01-01T02:13:38;99470.25;;;15.49;63.67
44974;BME280;60981;50.720;11.342;2023-01-01T02:14:44;99470.19;;;15.52;63.47
44974;BME280;60981;50.720;11.342;2023-01-01T02:17:23;99471.16;;;15.46;63.63
44974;BME280;60981;50.720;11.342;2023-01-01T02:21:31;99464.47;;;15.35;64.39
44974;BME280;60981;50.720;11.342;2023-01-01T02:24:19;99468.94;;;15.25;64.78
44974;BME280;60981;50.720;11.342;2023-01-01T02:25:48;99471.72;;;15.16;65.83
44974;BME280;60981;50.720;11.342;2023-01-01T02:28:39;99468.44;;;15.05;65.56
44974;BME280;60981;50.720;11.342;2023-01-01T02:29:47;99470.25;;;14.99;65.94
44974;BME280;60981;50.720;11.342;2023-01-01T02:30:50;99466.06;;;14.91;66.72
44974;BME280;60981;50.720;11.342;2023-01-01T02:33:20;99468.88;;;14.77;67.40
44974;BME280;60981;50.720;11.342;2023-01-01T02:34:26;99469.75;;;14.76;67.84
44974;BME280;60981;50.720;11.342;2023-01-01T02:35:39;99469.69;;;14.79;67.60
44974;BME280;60981;50.720;11.342;2023-01-01T02:36:47;99465.28;;;14.87;67.09
44974;BME280;60981;50.720;11.342;2023-01-01T02:37:55;99461.81;;;14.87;67.11
44974;BME280;60981;50.720;11.342;2023-01-01T02:39:03;99457.50;;;14.87;67.28
44974;BME280;60981;50.720;11.342;2023-01-01T02:40:10;99465.38;;;14.81;67.74
44974;BME280;60981;50.720;11.342;2023-01-01T02:41:17;99455.94;;;14.76;68.17
44974;BME280;60981;50.720;11.342;2023-01-01T02:42:22;99455.19;;;14.70;68.52
44974;BME280;60981;50.720;11.342;2023-01-01T02:43:29;99451.81;;;14.64;68.62
44974;BME280;60981;50.720;11.342;2023-01-01T02:44:34;99462.22;;;14.61;68.77
44974;BME280;60981;50.720;11.342;2023-01-01T02:45:37;99452.81;;;14.55;69.08
44974;BME280;60981;50.720;11.342;2023-01-01T02:46:40;99455.41;;;14.55;68.96
44974;BME280;60981;50.720;11.342;2023-01-01T02:47:42;99464.13;;;14.50;70.12
44974;BME280;60981;50.720;11.342;2023-01-01T02:48:51;99467.66;;;14.44;70.58
44974;BME280;60981;50.720;11.342;2023-01-01T02:50:09;99468.50;;;14.43;71.03
44974;BME280;60981;50.720;11.342;2023-01-01T02:56:59;99462.38;;;14.52;71.90
44974;BME280;60981;50.720;11.342;2023-01-01T03:06:27;99453.50;;;14.68;70.84
44974;BME280;60981;50.720;11.342;2023-01-01T03:13:07;99461.16;;;14.74;70.81
44974;BME280;60981;50.720;11.342;2023-01-01T03:17:32;99462.97;;;14.69;71.77
44974;BME280;60981;50.720;11.342;2023-01-01T03:19:44;99455.16;;;14.72;71.57
44974;BME280;60981;50.720;11.342;2023-01-01T03:20:49;99471.56;;;14.71;72.02
44974;BME280;60981;50.720;11.342;2023-01-01T03:22:00;99463.75;;;14.74;72.23
44974;BME280;60981;50.720;11.342;2023-01-01T03:23:06;99464.50;;;14.82;72.08
44974;BME280;60981;50.720;11.342;2023-01-01T03:24:52;99452.38;;;14.84;71.92
44974;BME280;60981;50.720;11.342;2023-01-01T03:25:38;99465.44;;;14.77;72.01
44974;BME280;60981;50.720;11.342;2023-01-01T03:26:43;99464.53;;;14.79;72.45
44974;BME280;60981;50.720;11.342;2023-01-01T03:27:47;99462.75;;;14.83;72.06
44974;BME280;60981;50.720;11.342;2023-01-01T03:28:55;99456.75;;;14.81;72.07
44974;BME280;60981;50.720;11.342;2023-01-01T03:29:58;99474.88;;;14.82;72.40
44974;BME280;60981;50.720;11.342;2023-01-01T03:31:04;99468.88;;;14.77;72.71
44974;BME280;60981;50.720;11.342;2023-01-01T03:32:08;99463.75;;;14.74;72.90
44974;BME280;60981;50.720;11.342;2023-01-01T03:33:22;99468.03;;;14.77;72.97
44974;BME280;60981;50.720;11.342;2023-01-01T03:34:28;99461.06;;;14.79;73.21
44974;BME280;60981;50.720;11.342;2023-01-01T03:36:39;99471.47;;;14.77;73.10
44974;BME280;60981;50.720;11.342;2023-01-01T03:37:43;99472.31;;;14.78;73.40
44974;BME280;60981;50.720;11.342;2023-01-01T03:40:21;99477.63;;;14.70;73.99
44974;BME280;60981;50.720;11.342;2023-01-01T03:41:28;99471.63;;;14.68;74.25
44974;BME280;60981;50.720;11.342;2023-01-01T03:42:39;99471.63;;;14.68;74.37
44974;BME280;60981;50.720;11.342;2023-01-01T03:43:44;99462.16;;;14.65;74.79
44974;BME280;60981;50.720;11.342;2023-01-01T03:46:12;99463.91;;;14.65;74.05
44974;BME280;60981;50.720;11.342;2023-01-01T03:47:16;99465.56;;;14.69;74.20
44974;BME280;60981;50.720;11.342;2023-01-01T03:48:18;99461.28;;;14.66;74.64
44974;BME280;60981;50.720;11.342;2023-01-01T03:49:22;99462.97;;;14.69;74.31
44974;BME280;60981;50.720;11.342;2023-01-01T03:50:27;99462.94;;;14.70;73.95
44974;BME280;60981;50.720;11.342;2023-01-01T03:53:08;99467.91;;;14.84;73.25
44974;BME280;60981;50.720;11.342;2023-01-01T03:54:20;99464.41;;;14.87;73.19
44974;BME280;60981;50.720;11.342;2023-01-01T03:57:04;99455.81;;;14.85;73.30
44974;BME280;60981;50.720;11.342;2023-01-01T03:58:12;99461.91;;;14.82;72.80
44974;BME280;60981;50.720;11.342;2023-01-01T03:59:21;99467.16;;;14.76;73.04
44974;BME280;60981;50.720;11.342;2023-01-01T04:00:39;99462.78;;;14.81;72.93
44974;BME280;60981;50.720;11.342;2023-01-01T04:01:48;99467.00;;;14.87;72.84
44974;BME280;60981;50.720;11.342;2023-01-01T04:02:59;99461.00;;;14.85;72.61
44974;BME280;60981;50.720;11.342;2023-01-01T04:04:03;99457.63;;;14.78;72.67
44974;BME280;60981;50.720;11.342;2023-01-01T04:05:11;99447.28;;;14.77;72.54
44974;BME280;60981;50.720;11.342;2023-01-01T04:06:14;99461.91;;;14.82;72.31
44974;BME280;60981;50.720;11.342;2023-01-01T04:07:17;99465.25;;;14.89;71.75
44974;BME280;60981;50.720;11.342;2023-01-01T04:08:19;99465.31;;;14.84;71.80
44974;BME280;60981;50.720;11.342;2023-01-01T04:09:27;99471.28;;;14.89;71.38
44974;BME280;60981;50.720;11.342;2023-01-01T04:10:33;99463.63;;;14.83;71.58
44974;BME280;60981;50.720;11.342;2023-01-01T04:11:36;99470.50;;;14.84;71.57
44974;BME280;60981;50.720;11.342;2023-01-01T04:13:03;99463.59;;;14.85;71.67
44974;BME280;60981;50.720;11.342;2023-01-01T04:14:06;99469.66;;;14.84;71.38
44974;BME280;60981;50.720;11.342;2023-01-01T04:15:09;99460.25;;;14.77;71.81
44974;BME280;60981;50.720;11.342;2023-01-01T04:16:11;99468.81;;;14.80;71.80
44974;BME280;60981;50.720;11.342;2023-01-01T04:17:13;99462.84;;;14.77;71.71
44974;BME280;60981;50.720;11.342;2023-01-01T04:18:15;99449.88;;;14.77;71.56
44974;BME280;60981;50.720;11.342;2023-01-01T04:19:17;99466.28;;;14.77;71.47
44974;BME280;60981;50.720;11.342;2023-01-01T04:20:20;99465.38;;;14.81;71.71
44974;BME280;60981;50.720;11.342;2023-01-01T04:21:23;99474.88;;;14.79;71.66
44974;BME280;60981;50.720;11.342;2023-01-01T04:22:25;99466.28;;;14.77;71.76
44974;BME280;60981;50.720;11.342;2023-01-01T04:23:26;99462.78;;;14.80;72.01
44974;BME280;60981;50.720;11.342;2023-01-01T04:24:29;99470.56;;;14.81;71.49
44974;BME280;60981;50.720;11.342;2023-01-01T04:25:32;99468.06;;;14.75;71.82
44974;BME280;60981;50.720;11.342;2023-01-01T04:26:34;99467.88;;;14.87;71.71
44974;BME280;60981;50.720;11.342;2023-01-01T04:27:36;99475.63;;;14.87;71.42
44974;BME280;60981;50.720;11.342;2023-01-01T04:28:41;99474.81;;;14.85;71.50
44974;BME280;60981;50.720;11.342;2023-01-01T04:29:43;99485.16;;;14.87;71.54
44974;BME280;60981;50.720;11.342;2023-01-01T04:30:46;99477.53;;;14.76;72.31
44974;BME280;60981;50.720;11.342;2023-01-01T04:31:51;99478.34;;;14.78;72.42
44974;BME280;60981;50.720;11.342;2023-01-01T04:32:53;99488.81;;;14.74;72.93
44974;BME280;60981;50.720;11.342;2023-01-01T04:33:56;99471.56;;;14.71;72.86
44974;BME280;60981;50.720;11.342;2023-01-01T04:34:59;99488.78;;;14.75;72.82
44974;BME280;60981;50.720;11.342;2023-01-01T04:36:06;99488.78;;;14.75;72.71
44974;BME280;60981;50.720;11.342;2023-01-01T04:37:10;99481.84;;;14.77;72.62
44974;BME280;60981;50.720;11.342;2023-01-01T04:38:14;99486.13;;;14.78;72.77
44974;BME280;60981;50.720;11.342;2023-01-01T04:39:20;99479.28;;;14.76;72.69
44974;BME280;60981;50.720;11.342;2023-01-01T04:40:23;99475.75;;;14.81;72.29
44974;BME280;60981;50.720;11.342;2023-01-01T04:41:25;99473.03;;;14.87;71.92
44974;BME280;60981;50.720;11.342;2023-01-01T04:42:27;99489.47;;;14.86;72.13
44974;BME280;60981;50.720;11.342;2023-01-01T04:43:29;99484.28;;;14.88;71.96
44974;BME280;60981;50.720;11.342;2023-01-01T04:44:31;99483.38;;;14.89;72.18
44974;BME280;60981;50.720;11.342;2023-01-01T04:45:34;99481.69;;;14.88;71.99
44974;BME280;60981;50.720;11.342;2023-01-01T04:46:36;99481.69;;;14.88;72.12
44974;BME280;60981;50.720;11.342;2023-01-01T04:47:39;99482.59;;;14.85;72.32
44974;BME280;60981;50.720;11.342;2023-01-01T04:48:44;99474.00;;;14.80;72.34
44974;BME280;60981;50.720;11.342;2023-01-01T04:49:45;99477.41;;;14.85;72.19
44974;BME280;60981;50.720;11.342;2023-01-01T04:50:56;99480.81;;;14.87;72.34
44974;BME280;60981;50.720;11.342;2023-01-01T04:51:59;99476.56;;;14.85;72.22
44974;BME280;60981;50.720;11.342;2023-01-01T04:53:01;99468.81;;;14.83;72.74
44974;BME280;60981;50.720;11.342;2023-01-01T04:54:06;99486.06;;;14.84;72.56
44974;BME280;60981;50.720;11.342;2023-01-01T04:55:08;99481.69;;;14.88;72.18
44974;BME280;60981;50.720;11.342;2023-01-01T04:56:11;99487.75;;;14.87;72.32
44974;BME280;60981;50.720;11.342;2023-01-01T04:57:13;99485.16;;;14.87;72.24
44974;BME280;60981;50.720;11.342;2023-01-01T04:58:16;99482.63;;;14.82;72.61
44974;BME280;60981;50.720;11.342;2023-01-01T04:59:20;99477.47;;;14.79;73.24
44974;BME280;60981;50.720;11.342;2023-01-01T05:00:21;99493.94;;;14.77;73.25
44974;BME280;60981;50.720;11.342;2023-01-01T05:01:27;99481.91;;;14.73;73.28
44974;BME280;60981;50.720;11.342;2023-01-01T05:02:30;99490.56;;;14.71;73.55
44974;BME280;60981;50.720;11.342;2023-01-01T05:03:34;99487.06;;;14.74;73.11
44974;BME280;60981;50.720;11.342;2023-01-01T05:04:37;99492.25;;;14.74;73.39
44974;BME280;60981;50.720;11.342;2023-01-01T05:05:40;99494.03;;;14.70;73.62
44974;BME280;60981;50.720;11.342;2023-01-01T05:06:45;99488.84;;;14.70;73.80
44974;BME280;60981;50.720;11.342;2023-01-01T05:07:50;99495.00;;;14.65;73.88
44974;BME280;60981;50.720;11.342;2023-01-01T05:08:52;99495.84;;;14.65;73.99
44974;BME280;60981;50.720;11.342;2023-01-01T05:10:01;99500.97;;;14.70;73.34
44974;BME280;60981;50.720;11.342;2023-01-01T05:11:06;99507.81;;;14.73;73.51
44974;BME280;60981;50.720;11.342;2023-01-01T05:12:09;99498.38;;;14.70;73.79
44974;BME280;60981;50.720;11.342;2023-01-01T05:13:14;99496.56;;;14.75;73.58
44974;BME280;60981;50.720;11.342;2023-01-01T05:14:16;99504.38;;;14.72;73.66
44974;BME280;60981;50.720;11.342;2023-01-01T05:15:19;99492.19;;;14.77;73.63
44974;BME280;60981;50.720;11.342;2023-01-01T05:16:27;99501.75;;;14.74;73.41
44974;BME280;60981;50.720;11.342;2023-01-01T05:17:30;99499.22;;;14.70;73.48
44974;BME280;60981;50.720;11.342;2023-01-01T05:18:33;99501.84;;;14.69;73.59
44974;BME280;60981;50.720;11.342;2023-01-01T05:19:35;99500.00;;;14.76;73.29
44974;BME280;60981;50.720;11.342;2023-01-01T05:20:37;99503.38;;;14.82;73.39
44974;BME280;60981;50.720;11.342;2023-01-01T05:21:39;99509.34;;;14.87;72.72
44974;BME280;60981;50.720;11.342;2023-01-01T05:22:41;99508.53;;;14.84;73.04
44974;BME280;60981;50.720;11.342;2023-01-01T05:23:45;99505.09;;;14.83;73.16
44974;BME280;60981;50.720;11.342;2023-01-01T05:24:50;99512.97;;;14.74;73.44
44974;BME280;60981;50.720;11.342;2023-01-01T05:25:53;99513.00;;;14.73;73.42
44974;BME280;60981;50.720;11.342;2023-01-01T05:26:54;99515.63;;;14.71;73.73
44974;BME280;60981;50.720;11.342;2023-01-01T05:27:57;99519.97;;;14.69;73.71
44974;BME280;60981;50.720;11.342;2023-01-01T05:29:01;99515.63;;;14.71;73.87
44974;BME280;60981;50.720;11.342;2023-01-01T05:30:14;99506.97;;;14.72;73.82
44974;BME280;60981;50.720;11.342;2023-01-01T05:31:21;99513.09;;;14.68;73.83
44974;BME280;60981;50.720;11.342;2023-01-01T05:32:29;99513.13;;;14.66;73.75
44974;BME280;60981;50.720;11.342;2023-01-01T05:33:31;99515.75;;;14.62;74.51
44974;BME280;60981;50.720;11.342;2023-01-01T05:34:36;99515.84;;;14.56;74.67
44974;BME280;60981;50.720;11.342;2023-01-01T05:35:38;99520.19;;;14.54;75.28
44974;BME280;60981;50.720;11.342;2023-01-01T05:36:40;99520.16;;;14.57;75.41
44974;BME280;60981;50.720;11.342;2023-01-01T05:37:43;99526.16;;;14.59;74.94
44974;BME280;60981;50.720;11.342;2023-01-01T05:38:47;99508.97;;;14.55;75.15
44974;BME280;60981;50.720;11.342;2023-01-01T05:39:50;99538.41;;;14.48;75.54
44974;BME280;60981;50.720;11.342;2023-01-01T05:40:53;99525.44;;;14.51;75.33
44974;BME280;60981;50.720;11.342;2023-01-01T05:41:55;99521.06;;;14.53;75.29
44974;BME280;60981;50.720;11.342;2023-01-01T05:42:58;99534.94;;;14.49;75.16
44974;BME280;60981;50.720;11.342;2023-01-01T05:44:00;99527.19;;;14.47;75.34
44974;BME280;60981;50.720;11.342;2023-01-01T05:45:04;99529.78;;;14.46;75.66
44974;BME280;60981;50.720;11.342;2023-01-01T05:46:11;99526.31;;;14.50;75.64
44974;BME280;60981;50.720;11.342;2023-01-01T05:47:16;99536.69;;;14.47;75.75
44974;BME280;60981;50.720;11.342;2023-01-01T05:48:20;99534.97;;;14.42;76.04
44974;BME280;60981;50.720;11.342;2023-01-01T05:49:24;99533.38;;;14.34;76.07
44974;BME280;60981;50.720;11.342;2023-01-01T05:50:26;99532.50;;;14.36;75.28
44974;BME280;60981;50.720;11.342;2023-01-01T05:51:30;99536.81;;;14.36;75.58
44974;BME280;60981;50.720;11.342;2023-01-01T05:52:31;99522.09;;;14.39;76.02
44974;BME280;60981;50.720;11.342;2023-01-01T05:53:35;99535.84;;;14.43;75.39
44974;BME280;60981;50.720;11.342;2023-01-01T05:54:37;99536.72;;;14.44;75.85
44974;BME280;60981;50.720;11.342;2023-01-01T05:55:39;99542.78;;;14.41;75.43
44974;BME280;60981;50.720;11.342;2023-01-01T05:56:43;99540.16;;;14.42;75.78
44974;BME280;60981;50.720;11.342;2023-01-01T05:57:45;99539.31;;;14.44;75.39
44974;BME280;60981;50.720;11.342;2023-01-01T05:58:49;99546.28;;;14.38;75.84
44974;BME280;60981;50.720;11.342;2023-01-01T05:59:51;99543.78;;;14.32;75.59
44974;BME280;60981;50.720;11.342;2023-01-01T06:00:53;99545.41;;;14.38;75.39
44974;BME280;60981;50.720;11.342;2023-01-01T06:01:56;99539.28;;;14.45;74.75
44974;BME280;60981;50.720;11.342;2023-01-01T06:03:00;99541.97;;;14.37;75.23
44974;BME280;60981;50.720;11.342;2023-01-01T06:04:03;99540.22;;;14.38;74.71
44974;BME280;60981;50.720;11.342;2023-01-01T06:05:05;99540.16;;;14.42;74.45
44974;BME280;60981;50.720;11.342;2023-01-01T06:06:15;99528.09;;;14.45;74.12
44974;BME280;60981;50.720;11.342;2023-01-01T06:07:20;99539.28;;;14.45;73.84
44974;BME280;60981;50.720;11.342;2023-01-01T06:08:22;99543.69;;;14.38;74.32
44974;BME280;60981;50.720;11.342;2023-01-01T06:09:26;99536.78;;;14.37;74.48
44974;BME280;60981;50.720;11.342;2023-01-01T06:10:29;99545.41;;;14.39;74.57
44974;BME280;60981;50.720;11.342;2023-01-01T06:11:31;99542.81;;;14.38;74.69
44974;BME280;60981;50.720;11.342;2023-01-01T06:12:34;99538.44;;;14.41;74.04
44974;BME280;60981;50.720;11.342;2023-01-01T06:13:39;99542.75;;;14.42;74.22
44974;BME280;60981;50.720;11.342;2023-01-01T06:14:42;99550.53;;;14.42;74.08
44974;BME280;60981;50.720;11.342;2023-01-01T06:15:51;99549.69;;;14.40;73.75
44974;BME280;60981;50.720;11.342;2023-01-01T06:16:57;99560.03;;;14.42;73.72
44974;BME280;60981;50.720;11.342;2023-01-01T06:18:00;99553.22;;;14.36;73.68
44974;BME280;60981;50.720;11.342;2023-01-01T06:19:05;99563.53;;;14.38;73.14
44974;BME280;60981;50.720;11.342;2023-01-01T06:20:07;99567.88;;;14.37;73.05
44974;BME280;60981;50.720;11.342;2023-01-01T06:21:10;99567.81;;;14.40;73.02
44974;BME280;60981;50.720;11.342;2023-01-01T06:22:16;99574.75;;;14.38;72.93
44974;BME280;60981;50.720;11.342;2023-01-01T06:23:19;99568.69;;;14.41;72.84
44974;BME280;60981;50.720;11.342;2023-01-01T06:24:24;99581.59;;;14.46;72.76
44974;BME280;60981;50.720;11.342;2023-01-01T06:25:27;99577.28;;;14.45;72.60